Thunder radar more information blitzortung!


Radar de pluja more information rain snow radar


Visita la nostra xarxa de llocs de meteo:

Template documentation
and downloads

And another site



No particular awareness of the weather is required.    There are no Weather-warnings

Pagina Historial Weather Underground text

Diari Resum Setembre 14, 2017 Unitats:  Tant    Imperial   Mètric
« Previous Dia
SegĂźent Dia »
Diari Setmana Mensual Anual Personalitzada
  Maxima: Minima: Media:
Temperatura: TemperatureC °F /  -17.8 °C 15.1 °F /  -9.4 °C 19.6 °F /  -6.9 °C
Punt de rosada: DewpointC °F /  -17.8 °C 11.4 °F /  -11.4 °C 13.4 °F /  -10.3 °C
Humitat: Humidity % 52 % 67 %
Wind Speed: WindSpeedKMH mph /  0 km/h - 4.1 mph /  6.6 km/h
RĂ fegues de vent: WindSpeedGustKMH mph /  0 km/h - -
Vent:- - South
Pression baro: PressurehPa in /  0 hPa 1013.8 in /  34327.3 hPa -
Precipitacions: 0.0 in /  0 mm    
Historical Graphs
 
 
Dades de taula per Setembre 14, 2017
Temps Temperatura Punt de rosada Pression baro Vent Wind Speed RĂ fegues de vent Humitat Rainfall Rate (Hourly)
TemperatureC °F /  -17.8 °C DewpointC °F /  -17.8 °C PressurehPa in /  0 hPa Calm     Humidity % HourlyPrecipMM in /  0 mm
00:04 20.5 °F /  -6.4 °C 16.3 °F /  -8.7 °C 1017.8 in /  34462.7 hPa West 3.7 mph /  6 km/h 3.7 mph /  6 km/h 77 % 0.0 in /  0 mm
00:05 20.5 °F /  -6.4 °C 16.3 °F /  -8.7 °C 1017.8 in /  34462.7 hPa SW 3.7 mph /  6 km/h 3.7 mph /  6 km/h 77 % 0.0 in /  0 mm
19:15 18.2 °F /  -7.7 °C 11.5 °F /  -11.4 °C 1016.8 in /  34428.8 hPa ESE 3.2 mph /  5.1 km/h 3.2 mph /  5.1 km/h 65 % 0.0 in /  0 mm
19:25 18.1 °F /  -7.7 °C 11.4 °F /  -11.4 °C 1015.8 in /  34395 hPa ESE 3.2 mph /  5.1 km/h 4.8 mph /  7.7 km/h 65 % 0.0 in /  0 mm
19:35 18.1 °F /  -7.7 °C 11.7 °F /  -11.3 °C 1015.8 in /  34395 hPa Calm   3.2 mph /  5.1 km/h 66 % 0.0 in /  0 mm
19:45 17.8 °F /  -7.9 °C 11.8 °F /  -11.2 °C 1015.8 in /  34395 hPa Calm   4.8 mph /  7.7 km/h 68 % 0.0 in /  0 mm
19:55 17.5 °F /  -8.1 °C 11.7 °F /  -11.3 °C 1015.8 in /  34395 hPa SSE 3.2 mph /  5.1 km/h 3.2 mph /  5.1 km/h 69 % 0.0 in /  0 mm
20:05 17.4 °F /  -8.1 °C 12.1 °F /  -11.1 °C 1015.8 in /  34395 hPa Calm   6.4 mph /  10.3 km/h 71 % 0.0 in /  0 mm
20:15 16.8 °F /  -8.4 °C 12.1 °F /  -11.1 °C 1015.8 in /  34395 hPa South 1.6 mph /  2.6 km/h 1.6 mph /  2.6 km/h 74 % 0.0 in /  0 mm
20:25 16.4 °F /  -8.7 °C 11.9 °F /  -11.2 °C 1015.8 in /  34395 hPa SW 1.6 mph /  2.6 km/h 3.2 mph /  5.1 km/h 75 % 1.0 in /  25.4 mm
20:35 16.1 °F /  -8.8 °C 12.3 °F /  -10.9 °C 1015.8 in /  34395 hPa SSW 3.2 mph /  5.1 km/h 4.8 mph /  7.7 km/h 78 % 5.3 in /  134.62 mm
20:45 16.0 °F /  -8.9 °C 12.3 °F /  -10.9 °C 1015.8 in /  34395 hPa NE 1.6 mph /  2.6 km/h 3.2 mph /  5.1 km/h 79 % 5.3 in /  134.62 mm
20:55 15.9 °F /  -8.9 °C 12.4 °F /  -10.9 °C 1015.8 in /  34395 hPa NNE 3.2 mph /  5.1 km/h 3.2 mph /  5.1 km/h 80 % 1.0 in /  25.4 mm
21:05 15.9 °F /  -8.9 °C 12.7 °F /  -10.7 °C 1015.8 in /  34395 hPa NE 1.6 mph /  2.6 km/h 3.2 mph /  5.1 km/h 81 % 0.0 in /  0 mm
21:15 15.8 °F /  -9 °C 12.7 °F /  -10.7 °C 1015.8 in /  34395 hPa North 1.6 mph /  2.6 km/h 3.2 mph /  5.1 km/h 82 % 0.0 in /  0 mm
21:25 15.9 °F /  -8.9 °C 13.0 °F /  -10.6 °C 1015.8 in /  34395 hPa NNW 1.6 mph /  2.6 km/h 3.2 mph /  5.1 km/h 83 % 0.0 in /  0 mm
21:35 15.7 °F /  -9.1 °C 12.4 °F /  -10.9 °C 1015.8 in /  34395 hPa West 3.2 mph /  5.1 km/h 4.8 mph /  7.7 km/h 81 % 0.0 in /  0 mm
21:42 30.4 °F /  -0.9 °C 19.4 °F /  -7 °C 1013.8 in /  34327.3 hPa West 1.9 mph /  3.1 km/h   52 % 0.0 in /  0 mm
21:43 30.4 °F /  -0.9 °C 19.4 °F /  -7 °C 1013.8 in /  34327.3 hPa West 1.9 mph /  3.1 km/h   52 % 0.0 in /  0 mm
21:45 15.5 °F /  -9.2 °C 12.4 °F /  -10.9 °C 1014.8 in /  34361.1 hPa West 3.2 mph /  5.1 km/h 4.8 mph /  7.7 km/h 82 % 0.0 in /  0 mm
21:48 30.4 °F /  -0.9 °C 19.4 °F /  -7 °C 1013.8 in /  34327.3 hPa West 1.9 mph /  3.1 km/h   52 % 0.0 in /  0 mm
21:53 30.4 °F /  -0.9 °C 19.4 °F /  -7 °C 1013.8 in /  34327.3 hPa West 1.9 mph /  3.1 km/h   52 % 0.0 in /  0 mm
21:55 15.3 °F /  -9.3 °C 12.2 °F /  -11 °C 1015.8 in /  34395 hPa WNW 1.6 mph /  2.6 km/h 3.2 mph /  5.1 km/h 82 % 0.0 in /  0 mm
21:58 30.4 °F /  -0.9 °C 19.4 °F /  -7 °C 1013.8 in /  34327.3 hPa West 1.9 mph /  3.1 km/h   52 % 0.0 in /  0 mm
22:03 30.4 °F /  -0.9 °C 19.4 °F /  -7 °C 1013.8 in /  34327.3 hPa West 1.9 mph /  3.1 km/h   52 % 0.0 in /  0 mm
22:05 15.1 °F /  -9.4 °C 12.2 °F /  -11 °C 1015.8 in /  34395 hPa North 3.2 mph /  5.1 km/h 4.8 mph /  7.7 km/h 83 % 1.0 in /  25.4 mm
22:10 20.7 °F /  -6.3 °C 14.1 °F /  -9.9 °C 1016.8 in /  34428.8 hPa WSW 4.2 mph /  6.8 km/h 4.2 mph /  6.8 km/h 66 % 0.0 in /  0 mm
22:15 20.7 °F /  -6.3 °C 14.1 °F /  -9.9 °C 1016.8 in /  34428.8 hPa SW 3.7 mph /  6 km/h 3.7 mph /  6 km/h 66 % 0.0 in /  0 mm
22:20 20.7 °F /  -6.3 °C 14.1 °F /  -9.9 °C 1015.8 in /  34395 hPa WSW 3.7 mph /  6 km/h 3.7 mph /  6 km/h 66 % 0.0 in /  0 mm
22:25 20.7 °F /  -6.3 °C 14.1 °F /  -9.9 °C 1015.8 in /  34395 hPa WSW 3.7 mph /  6 km/h 3.7 mph /  6 km/h 66 % 0.0 in /  0 mm
22:30 20.7 °F /  -6.3 °C 14.1 °F /  -9.9 °C 1015.8 in /  34395 hPa WSW 3.7 mph /  6 km/h 3.7 mph /  6 km/h 66 % 0.0 in /  0 mm
22:35 20.7 °F /  -6.3 °C 14.1 °F /  -9.9 °C 1015.8 in /  34395 hPa SW 2.6 mph /  4.2 km/h   66 % 0.0 in /  0 mm
22:40 20.7 °F /  -6.3 °C 14.1 °F /  -9.9 °C 1015.8 in /  34395 hPa West 3.2 mph /  5.1 km/h   66 % 0.0 in /  0 mm
22:45 20.7 °F /  -6.3 °C 14.1 °F /  -9.9 °C 1015.8 in /  34395 hPa South 3.7 mph /  6 km/h 3.7 mph /  6 km/h 66 % 0.0 in /  0 mm
22:50 20.7 °F /  -6.3 °C 14.1 °F /  -9.9 °C 1015.8 in /  34395 hPa NNE 3.7 mph /  6 km/h 3.7 mph /  6 km/h 66 % 0.0 in /  0 mm
22:55 20.7 °F /  -6.3 °C 14.3 °F /  -9.8 °C 1015.8 in /  34395 hPa ENE 4.7 mph /  7.6 km/h 4.7 mph /  7.6 km/h 67 % 0.0 in /  0 mm
23:00 20.6 °F /  -6.3 °C 14.5 °F /  -9.7 °C 1015.8 in /  34395 hPa East 3.7 mph /  6 km/h 3.7 mph /  6 km/h 68 % 0.0 in /  0 mm
23:05 20.5 °F /  -6.4 °C 14.4 °F /  -9.8 °C 1015.8 in /  34395 hPa SE 13.7 mph /  22 km/h 13.7 mph /  22 km/h 68 % 0.0 in /  0 mm
23:10 20.0 °F /  -6.7 °C 13.4 °F /  -10.3 °C 1015.8 in /  34395 hPa East 11.1 mph /  17.9 km/h 11.1 mph /  17.9 km/h 66 % 0.0 in /  0 mm
23:15 19.8 °F /  -6.8 °C 13.1 °F /  -10.5 °C 1015.8 in /  34395 hPa ESE 9.3 mph /  15 km/h 9.3 mph /  15 km/h 65 % 0.0 in /  0 mm
23:20 19.6 °F /  -6.9 °C 12.4 °F /  -10.9 °C 1015.8 in /  34395 hPa ESE 11.1 mph /  17.9 km/h 11.1 mph /  17.9 km/h 63 % 0.0 in /  0 mm
23:25 19.4 °F /  -7 °C 12.2 °F /  -11 °C 1015.8 in /  34395 hPa East 7.4 mph /  11.9 km/h 7.4 mph /  11.9 km/h 63 % 0.0 in /  0 mm
23:30 19.2 °F /  -7.1 °C 11.7 °F /  -11.3 °C 1015.8 in /  34395 hPa ESE 9.3 mph /  15 km/h 9.3 mph /  15 km/h 62 % 0.0 in /  0 mm
23:35 19.1 °F /  -7.2 °C 11.7 °F /  -11.3 °C 1014.8 in /  34361.1 hPa ENE 9.3 mph /  15 km/h 9.3 mph /  15 km/h 62 % 0.0 in /  0 mm
23:40 18.8 °F /  -7.3 °C 11.6 °F /  -11.3 °C 1014.8 in /  34361.1 hPa ESE 11.1 mph /  17.9 km/h 11.1 mph /  17.9 km/h 63 % 0.0 in /  0 mm
23:45 18.5 °F /  -7.5 °C 11.6 °F /  -11.3 °C 1014.8 in /  34361.1 hPa ESE 11.1 mph /  17.9 km/h 11.1 mph /  17.9 km/h 64 % 0.0 in /  0 mm
23:50 18.5 °F /  -7.5 °C 11.6 °F /  -11.3 °C 1015.8 in /  34395 hPa ESE 5.6 mph /  9 km/h 5.6 mph /  9 km/h 64 % 0.0 in /  0 mm
23:55 18.4 °F /  -7.6 °C 11.4 °F /  -11.4 °C 1015.8 in /  34395 hPa ENE 4.2 mph /  6.8 km/h 4.2 mph /  6.8 km/h 64 % 0.0 in /  0 mm
Meteo Sesrovires
Elogis d' Weather Underground - 2 mb

Guio original per  Jim McMurry - jmcmurry@mwt.net Adaptat per a la plantilla per  Wim van der Kuil - Leuven-Template.eu

Trobareu la nostra informacio del temps tambe a:

Weather Underground

AWEKAS